Private Wetterstation Sandau
Wetterdaten: Montag, 20.02.2012
Datum Zeit Temp. A. Feuchte A. Luftdruck Regen Wind Richtung Richtung Taupunkt Windchill
20.02.2012 00:02 0,8 C 86 % 1024,3 hPa 0,0 l/m 14,4 km/h (3 Bft) W-SW 247 -1,3 C -3,3 C
20.02.2012 00:07 0,8 C 86 % 1024,4 hPa 0,0 l/m 13,0 km/h (3 Bft) W 270 -1,3 C -3,0 C
20.02.2012 00:12 0,8 C 86 % 1024,5 hPa 0,0 l/m 5,4 km/h (1 Bft) W-SW 247 -1,3 C -0,9 C
20.02.2012 00:17 0,8 C 86 % 1024,6 hPa 0,0 l/m 9,0 km/h (2 Bft) W 270 -1,3 C -2,1 C
20.02.2012 00:22 0,8 C 86 % 1024,4 hPa 0,0 l/m 10,4 km/h (2 Bft) W-SW 247 -1,3 C -2,5 C
20.02.2012 00:27 0,8 C 86 % 1024,7 hPa 0,0 l/m 10,4 km/h (2 Bft) W 270 -1,3 C -2,5 C
20.02.2012 00:32 0,7 C 86 % 1024,8 hPa 0,0 l/m 7,6 km/h (2 Bft) W-NW 292 -1,4 C -1,8 C
20.02.2012 00:37 0,7 C 86 % 1025,0 hPa 0,0 l/m 9,7 km/h (2 Bft) W-SW 247 -1,4 C -2,4 C
20.02.2012 00:42 0,7 C 86 % 1024,9 hPa 0,0 l/m 9,7 km/h (2 Bft) W-NW 292 -1,4 C -2,4 C
20.02.2012 00:47 0,6 C 86 % 1025,0 hPa 0,0 l/m 11,2 km/h (2 Bft) SW 225 -1,5 C -2,9 C
20.02.2012 00:52 0,6 C 86 % 1025,1 hPa 0,0 l/m 11,2 km/h (2 Bft) W-SW 247 -1,5 C -2,9 C
20.02.2012 00:57 0,6 C 86 % 1025,2 hPa 0,0 l/m 10,8 km/h (2 Bft) W-NW 292 -1,5 C -2,8 C
20.02.2012 01:02 0,6 C 87 % 1025,4 hPa 0,0 l/m 15,8 km/h (3 Bft) W-NW 292 -1,3 C -3,8 C
20.02.2012 01:07 0,6 C 87 % 1025,3 hPa 0,0 l/m 11,5 km/h (2 Bft) W-SW 247 -1,3 C -3,0 C
20.02.2012 01:12 0,6 C 87 % 1025,4 hPa 0,0 l/m 6,5 km/h (2 Bft) NW 315 -1,3 C -1,5 C
20.02.2012 01:17 0,6 C 87 % 1025,6 hPa 0,0 l/m 9,4 km/h (2 Bft) W-SW 247 -1,3 C -2,4 C
20.02.2012 01:22 0,6 C 87 % 1025,6 hPa 0,0 l/m 10,8 km/h (2 Bft) W-SW 247 -1,3 C -2,8 C
20.02.2012 01:27 0,6 C 87 % 1025,7 hPa 0,0 l/m 19,4 km/h (3 Bft) W 270 -1,3 C -4,4 C
20.02.2012 01:32 0,6 C 87 % 1025,6 hPa 0,0 l/m 6,5 km/h (2 Bft) W 270 -1,3 C -1,5 C
20.02.2012 01:37 0,6 C 87 % 1025,7 hPa 0,0 l/m 5,8 km/h (2 Bft) W-SW 247 -1,3 C -1,3 C
20.02.2012 01:42 0,6 C 87 % 1025,8 hPa 0,0 l/m 12,2 km/h (2 Bft) W 270 -1,3 C -3,1 C
20.02.2012 01:47 0,5 C 87 % 1025,8 hPa 0,0 l/m 10,1 km/h (2 Bft) NW 315 -1,4 C -2,7 C
20.02.2012 01:52 0,5 C 87 % 1025,9 hPa 0,0 l/m 15,5 km/h (3 Bft) W-NW 292 -1,4 C -3,9 C
20.02.2012 01:57 0,5 C 87 % 1026,2 hPa 0,0 l/m 12,2 km/h (2 Bft) W 270 -1,4 C -3,2 C
20.02.2012 02:02 0,5 C 87 % 1026,2 hPa 0,0 l/m 9,7 km/h (2 Bft) W-SW 247 -1,4 C -2,6 C
20.02.2012 02:07 0,4 C 87 % 1026,1 hPa 0,0 l/m 6,5 km/h (2 Bft) W 270 -1,5 C -1,8 C
20.02.2012 02:12 0,4 C 87 % 1026,3 hPa 0,0 l/m 11,9 km/h (2 Bft) W-NW 292 -1,5 C -3,3 C
20.02.2012 02:17 0,4 C 87 % 1026,5 hPa 0,0 l/m 6,5 km/h (2 Bft) SW 225 -1,5 C -1,8 C
20.02.2012 02:22 0,4 C 87 % 1026,3 hPa 0,0 l/m 5,8 km/h (2 Bft) W-SW 247 -1,5 C -1,5 C
20.02.2012 02:27 0,4 C 87 % 1026,4 hPa 0,0 l/m 11,2 km/h (2 Bft) W 270 -1,5 C -3,1 C
20.02.2012 02:32 0,3 C 87 % 1026,5 hPa 0,0 l/m 3,2 km/h (1 Bft) S-SW 202 -1,6 C 0,3 C
20.02.2012 02:37 0,3 C 87 % 1026,3 hPa 0,0 l/m 9,7 km/h (2 Bft) NW 315 -1,6 C -2,9 C
20.02.2012 02:42 0,3 C 87 % 1026,6 hPa 0,0 l/m 7,9 km/h (2 Bft) W-SW 247 -1,6 C -2,4 C
20.02.2012 02:47 0,3 C 87 % 1026,6 hPa 0,0 l/m 15,8 km/h (3 Bft) W-SW 247 -1,6 C -4,2 C
20.02.2012 02:52 0,2 C 87 % 1026,7 hPa 0,0 l/m 4,0 km/h (1 Bft) W-SW 247 -1,7 C 0,2 C
20.02.2012 02:57 0,2 C 87 % 1026,8 hPa 0,0 l/m 7,2 km/h (2 Bft) W 270 -1,7 C -2,2 C
20.02.2012 03:02 0,2 C 87 % 1026,9 hPa 0,0 l/m 4,0 km/h (1 Bft) W-NW 292 -1,7 C 0,2 C
20.02.2012 03:07 0,2 C 87 % 1026,9 hPa 0,0 l/m 10,8 km/h (2 Bft) W 270 -1,7 C -3,3 C
20.02.2012 03:12 0,2 C 87 % 1027,0 hPa 0,0 l/m 9,0 km/h (2 Bft) W 270 -1,7 C -2,8 C
20.02.2012 03:17 0,1 C 86 % 1026,9 hPa 0,0 l/m 14,8 km/h (3 Bft) W-SW 247 -2,0 C -4,3 C
20.02.2012 03:22 0,1 C 87 % 1026,9 hPa 0,0 l/m 19,1 km/h (3 Bft) W 270 -1,8 C -5,0 C
20.02.2012 03:27 0,1 C 87 % 1027,0 hPa 0,0 l/m 7,9 km/h (2 Bft) W-SW 247 -1,8 C -2,6 C
20.02.2012 03:32 0,1 C 87 % 1027,0 hPa 0,0 l/m 7,9 km/h (2 Bft) W 270 -1,8 C -2,6 C
20.02.2012 03:37 0,1 C 87 % 1027,1 hPa 0,0 l/m 7,2 km/h (2 Bft) W 270 -1,8 C -2,4 C
20.02.2012 03:42 0,1 C 87 % 1027,1 hPa 0,0 l/m 17,3 km/h (3 Bft) W-SW 247 -1,8 C -4,7 C
20.02.2012 03:47 0,1 C 87 % 1027,2 hPa 0,0 l/m 7,9 km/h (2 Bft) W-NW 292 -1,8 C -2,6 C
20.02.2012 03:52 0,1 C 87 % 1027,2 hPa 0,0 l/m 6,8 km/h (2 Bft) W-NW 292 -1,8 C -2,2 C
20.02.2012 03:57 0,1 C 87 % 1027,2 hPa 0,0 l/m 8,6 km/h (2 Bft) S-SW 202 -1,8 C -2,8 C
20.02.2012 04:02 0,1 C 87 % 1027,3 hPa 0,0 l/m 12,2 km/h (2 Bft) W 270 -1,8 C -3,7 C
20.02.2012 04:07 0,1 C 87 % 1027,3 hPa 0,0 l/m 6,5 km/h (2 Bft) NW 315 -1,8 C -2,1 C
20.02.2012 04:12 0,1 C 87 % 1027,5 hPa 0,0 l/m 14,8 km/h (3 Bft) W 270 -1,8 C -4,3 C
20.02.2012 04:17 0,0 C 87 % 1027,6 hPa 0,0 l/m 16,2 km/h (3 Bft) W-SW 247 -1,9 C -4,6 C
20.02.2012 04:22 -0,1 C 87 % 1027,5 hPa 0,0 l/m 10,4 km/h (2 Bft) W 270 -2,0 C -3,5 C
20.02.2012 04:27 -0,1 C 87 % 1027,5 hPa 0,0 l/m 20,5 km/h (4 Bft) W-SW 247 -2,0 C -5,4 C
20.02.2012 04:32 -0,1 C 87 % 1027,7 hPa 0,0 l/m 17,6 km/h (3 Bft) W-SW 247 -2,0 C -5,0 C
20.02.2012 04:37 -0,1 C 87 % 1027,7 hPa 0,0 l/m 15,8 km/h (3 Bft) W-SW 247 -2,0 C -4,7 C
20.02.2012 04:42 -0,1 C 87 % 1027,8 hPa 0,0 l/m 7,9 km/h (2 Bft) W-SW 247 -2,0 C -2,8 C
20.02.2012 04:47 -0,1 C 87 % 1027,8 hPa 0,0 l/m 3,2 km/h (1 Bft) W 270 -2,0 C -0,1 C
20.02.2012 04:52 -0,2 C 87 % 1027,9 hPa 0,0 l/m 7,6 km/h (2 Bft) W-SW 247 -2,1 C -2,8 C
20.02.2012 04:57 -0,2 C 87 % 1027,9 hPa 0,0 l/m 7,2 km/h (2 Bft) W-NW 292 -2,1 C -2,7 C
20.02.2012 05:02 -0,2 C 87 % 1028,1 hPa 0,0 l/m 5,4 km/h (1 Bft) W-NW 292 -2,1 C -2,0 C
20.02.2012 05:07 -0,2 C 87 % 1028,0 hPa 0,0 l/m 10,8 km/h (2 Bft) S-SO 157 -2,1 C -3,8 C
20.02.2012 05:12 -0,2 C 87 % 1028,2 hPa 0,0 l/m 14,4 km/h (3 Bft) W 270 -2,1 C -4,5 C
20.02.2012 05:17 -0,2 C 87 % 1028,3 hPa 0,0 l/m 6,8 km/h (2 Bft) W-SW 247 -2,1 C -2,6 C
20.02.2012 05:22 -0,2 C 87 % 1028,4 hPa 0,0 l/m 13,3 km/h (3 Bft) W 270 -2,1 C -4,3 C
20.02.2012 05:27 -0,2 C 87 % 1028,4 hPa 0,0 l/m 10,1 km/h (2 Bft) W-NW 292 -2,1 C -3,6 C
20.02.2012 05:32 -0,3 C 87 % 1028,5 hPa 0,0 l/m 4,0 km/h (1 Bft) W 270 -2,2 C -0,3 C
20.02.2012 05:37 -0,4 C 87 % 1028,6 hPa 0,0 l/m 7,9 km/h (2 Bft) W 270 -2,3 C -3,2 C
20.02.2012 05:42 -0,4 C 88 % 1028,5 hPa 0,0 l/m 19,4 km/h (3 Bft) W 270 -2,1 C -5,7 C
20.02.2012 05:47 -0,4 C 88 % 1028,7 hPa 0,0 l/m 7,9 km/h (2 Bft) W-SW 247 -2,1 C -3,2 C
20.02.2012 05:52 -0,4 C 88 % 1028,9 hPa 0,0 l/m 7,2 km/h (2 Bft) W-SW 247 -2,1 C -2,9 C
20.02.2012 05:57 -0,4 C 88 % 1028,7 hPa 0,0 l/m 14,8 km/h (3 Bft) W-NW 292 -2,1 C -4,9 C
20.02.2012 06:02 -0,4 C 88 % 1029,0 hPa 0,0 l/m 10,1 km/h (2 Bft) W-NW 292 -2,1 C -3,8 C
20.02.2012 06:07 -0,4 C 88 % 1028,9 hPa 0,0 l/m 5,0 km/h (1 Bft) W 270 -2,1 C -2,0 C
20.02.2012 06:12 -0,4 C 88 % 1029,0 hPa 0,0 l/m 5,8 km/h (2 Bft) NW 315 -2,1 C -2,4 C
20.02.2012 06:17 -0,4 C 88 % 1028,9 hPa 0,0 l/m 8,6 km/h (2 Bft) W 270 -2,1 C -3,4 C
20.02.2012 06:22 -0,4 C 88 % 1029,0 hPa 0,0 l/m 8,6 km/h (2 Bft) W-NW 292 -2,1 C -3,4 C
20.02.2012 06:27 -0,4 C 88 % 1029,0 hPa 0,0 l/m 7,6 km/h (2 Bft) W 270 -2,1 C -3,1 C
20.02.2012 06:32 -0,5 C 88 % 1029,1 hPa 0,0 l/m 8,3 km/h (2 Bft) W 270 -2,2 C -3,4 C
20.02.2012 06:37 -0,5 C 88 % 1029,2 hPa 0,0 l/m 13,0 km/h (3 Bft) W-NW 292 -2,2 C -4,6 C
20.02.2012 06:42 -0,5 C 88 % 1029,3 hPa 0,0 l/m 9,4 km/h (2 Bft) W-NW 292 -2,2 C -3,7 C
20.02.2012 06:47 -0,5 C 88 % 1029,5 hPa 0,0 l/m 10,4 km/h (2 Bft) NW 315 -2,2 C -4,0 C
20.02.2012 06:52 -0,4 C 88 % 1029,4 hPa 0,0 l/m 13,0 km/h (3 Bft) W-NW 292 -2,1 C -4,5 C
20.02.2012 06:57 -0,4 C 88 % 1029,7 hPa 0,0 l/m 9,7 km/h (2 Bft) W-NW 292 -2,1 C -3,7 C
20.02.2012 07:02 -0,4 C 88 % 1029,7 hPa 0,0 l/m 12,2 km/h (2 Bft) W-SW 247 -2,1 C -4,3 C
20.02.2012 07:07 -0,4 C 88 % 1029,9 hPa 0,0 l/m 7,9 km/h (2 Bft) W 270 -2,1 C -3,2 C
20.02.2012 07:12 -0,4 C 88 % 1029,8 hPa 0,0 l/m 17,6 km/h (3 Bft) W 270 -2,1 C -5,4 C
20.02.2012 07:17 -0,4 C 88 % 1030,0 hPa 0,0 l/m 11,9 km/h (2 Bft) W 270 -2,1 C -4,3 C
20.02.2012 07:22 -0,4 C 88 % 1030,2 hPa 0,0 l/m 4,3 km/h (1 Bft) W 270 -2,1 C -0,4 C
20.02.2012 07:27 -0,4 C 88 % 1030,0 hPa 0,0 l/m 8,6 km/h (2 Bft) W 270 -2,1 C -3,4 C
20.02.2012 07:32 -0,4 C 88 % 1030,2 hPa 0,0 l/m 7,2 km/h (2 Bft) W 270 -2,1 C -2,9 C
20.02.2012 07:37 -0,4 C 88 % 1030,3 hPa 0,0 l/m 8,3 km/h (2 Bft) W-NW 292 -2,1 C -3,3 C
20.02.2012 07:42 -0,4 C 88 % 1030,3 hPa 0,0 l/m 11,5 km/h (2 Bft) W-NW 292 -2,1 C -4,2 C
20.02.2012 07:47 -0,4 C 88 % 1030,5 hPa 0,0 l/m 4,0 km/h (1 Bft) W-SW 247 -2,1 C -0,4 C
20.02.2012 07:52 -0,4 C 88 % 1030,7 hPa 0,0 l/m 8,3 km/h (2 Bft) W-NW 292 -2,1 C -3,3 C
20.02.2012 07:57 -0,4 C 88 % 1030,7 hPa 0,0 l/m 10,1 km/h (2 Bft) NW 315 -2,1 C -3,8 C
20.02.2012 08:02 -0,3 C 88 % 1030,8 hPa 0,0 l/m 9,7 km/h (2 Bft) W-NW 292 -2,0 C -3,6 C
20.02.2012 08:07 -0,3 C 88 % 1030,9 hPa 0,0 l/m 5,4 km/h (1 Bft) W 270 -2,0 C -2,1 C
20.02.2012 08:12 -0,2 C 88 % 1031,0 hPa 0,0 l/m 12,2 km/h (2 Bft) W 270 -1,9 C -4,1 C
20.02.2012 08:17 -0,2 C 88 % 1031,0 hPa 0,0 l/m 13,7 km/h (3 Bft) NW 315 -1,9 C -4,4 C
20.02.2012 08:22 -0,1 C 88 % 1031,1 hPa 0,0 l/m 10,1 km/h (2 Bft) N-NW 337 -1,8 C -3,5 C
20.02.2012 08:27 -0,1 C 88 % 1031,2 hPa 0,0 l/m 9,4 km/h (2 Bft) W-NW 292 -1,8 C -3,3 C
20.02.2012 08:32 -0,1 C 88 % 1031,3 hPa 0,0 l/m 10,8 km/h (2 Bft) W-NW 292 -1,8 C -3,6 C
20.02.2012 08:37 0,0 C 88 % 1031,2 hPa 0,0 l/m 13,3 km/h (3 Bft) NW 315 -1,7 C -4,1 C
20.02.2012 08:42 0,1 C 88 % 1031,2 hPa 0,0 l/m 5,0 km/h (1 Bft) W 270 -1,6 C -1,5 C
20.02.2012 08:47 0,1 C 88 % 1031,4 hPa 0,0 l/m 10,8 km/h (2 Bft) W 270 -1,6 C -3,4 C
20.02.2012 08:52 0,2 C 88 % 1031,5 hPa 0,0 l/m 5,0 km/h (1 Bft) W-SW 247 -1,5 C -1,4 C
20.02.2012 08:57 0,3 C 87 % 1031,7 hPa 0,0 l/m 15,8 km/h (3 Bft) W-SW 247 -1,6 C -4,2 C
20.02.2012 09:02 0,3 C 87 % 1031,7 hPa 0,0 l/m 10,4 km/h (2 Bft) W 270 -1,6 C -3,1 C
20.02.2012 09:07 0,4 C 87 % 1031,8 hPa 0,0 l/m 8,3 km/h (2 Bft) W-SW 247 -1,5 C -2,4 C
20.02.2012 09:12 0,4 C 87 % 1031,8 hPa 0,0 l/m 15,1 km/h (3 Bft) W-NW 292 -1,5 C -3,9 C
20.02.2012 09:17 0,5 C 87 % 1031,9 hPa 0,0 l/m 3,6 km/h (1 Bft) SW 225 -1,4 C 0,5 C
20.02.2012 09:22 0,5 C 87 % 1031,8 hPa 0,0 l/m 3,2 km/h (1 Bft) W-SW 247 -1,4 C 0,5 C
20.02.2012 09:27 0,6 C 87 % 1031,9 hPa 0,0 l/m 14,4 km/h (3 Bft) W-SW 247 -1,3 C -3,6 C
20.02.2012 09:32 0,7 C 87 % 1032,1 hPa 0,0 l/m 4,7 km/h (1 Bft) W 270 -1,2 C -0,7 C
20.02.2012 09:37 0,7 C 87 % 1032,3 hPa 0,0 l/m 7,9 km/h (2 Bft) W 270 -1,2 C -1,9 C
20.02.2012 09:42 0,8 C 87 % 1032,2 hPa 0,5 l/m 5,4 km/h (1 Bft) W-SW 247 -1,1 C -0,9 C
20.02.2012 09:47 0,9 C 87 % 1032,3 hPa 0,0 l/m 8,6 km/h (2 Bft) W 270 -1,0 C -1,9 C
20.02.2012 09:52 0,9 C 86 % 1032,5 hPa 0,0 l/m 5,8 km/h (2 Bft) W-SW 247 -1,2 C -0,9 C
20.02.2012 09:57 1,0 C 86 % 1032,3 hPa 0,0 l/m 5,0 km/h (1 Bft) W 270 -1,1 C -0,5 C
20.02.2012 10:02 1,1 C 86 % 1032,5 hPa 0,0 l/m 12,2 km/h (2 Bft) W-NW 292 -1,0 C -2,5 C
20.02.2012 10:07 1,1 C 86 % 1032,6 hPa 0,0 l/m 2,9 km/h (1 Bft) W-NW 292 -1,0 C 1,1 C
20.02.2012 10:12 1,2 C 86 % 1032,5 hPa 0,0 l/m 9,4 km/h (2 Bft) W-NW 292 -0,9 C -1,7 C
20.02.2012 10:17 1,3 C 86 % 1032,6 hPa 0,0 l/m 4,3 km/h (1 Bft) W 270 -0,8 C 1,3 C
20.02.2012 10:22 1,3 C 86 % 1032,7 hPa 0,0 l/m 8,3 km/h (2 Bft) W-SW 247 -0,8 C -1,3 C
20.02.2012 10:27 1,3 C 85 % 1032,8 hPa 0,0 l/m 8,6 km/h (2 Bft) NW 315 -0,9 C -1,4 C
20.02.2012 10:32 1,4 C 85 % 1032,6 hPa 0,0 l/m 9,7 km/h (2 Bft) N 360 -0,8 C -1,6 C
20.02.2012 10:37 1,5 C 85 % 1032,7 hPa 0,0 l/m 7,2 km/h (2 Bft) W 270 -0,7 C -0,7 C
20.02.2012 10:42 1,6 C 85 % 1032,8 hPa 0,0 l/m 5,0 km/h (1 Bft) S 180 -0,6 C 0,2 C
20.02.2012 10:47 1,6 C 85 % 1032,9 hPa 0,0 l/m 5,4 km/h (1 Bft) W-NW 292 -0,6 C 0,1 C
20.02.2012 10:52 1,7 C 85 % 1033,0 hPa 0,0 l/m 7,2 km/h (2 Bft) SW 225 -0,5 C -0,5 C
20.02.2012 10:57 1,8 C 85 % 1032,9 hPa 0,0 l/m 17,3 km/h (3 Bft) W 270 -0,4 C -2,6 C
20.02.2012 11:02 1,8 C 85 % 1033,0 hPa 0,0 l/m 9,4 km/h (2 Bft) W 270 -0,4 C -1,0 C
20.02.2012 11:07 1,9 C 85 % 1033,2 hPa 0,0 l/m 11,9 km/h (2 Bft) W-SW 247 -0,3 C -1,5 C
20.02.2012 11:12 2,1 C 85 % 1033,1 hPa 0,0 l/m 7,2 km/h (2 Bft) W-SW 247 -0,2 C -0,0 C
20.02.2012 11:17 2,1 C 84 % 1033,1 hPa 0,0 l/m 11,5 km/h (2 Bft) W-SW 247 -0,3 C -1,2 C
20.02.2012 11:22 2,1 C 84 % 1033,1 hPa 0,0 l/m 4,0 km/h (1 Bft) W-SW 247 -0,3 C 2,1 C
20.02.2012 11:27 2,2 C 83 % 1033,2 hPa 0,0 l/m 9,4 km/h (2 Bft) W-SW 247 -0,4 C -0,5 C
20.02.2012 11:32 2,3 C 83 % 1033,2 hPa 0,0 l/m 5,8 km/h (2 Bft) W-NW 292 -0,3 C 0,7 C
20.02.2012 11:37 2,4 C 84 % 1033,2 hPa 0,0 l/m 9,0 km/h (2 Bft) SW 225 -0,0 C -0,2 C
20.02.2012 11:42 2,4 C 84 % 1033,1 hPa 0,0 l/m 9,0 km/h (2 Bft) W-SW 247 -0,0 C -0,2 C
20.02.2012 11:47 2,4 C 83 % 1033,2 hPa 0,0 l/m 15,8 km/h (3 Bft) W-NW 292 -0,2 C -1,6 C
20.02.2012 11:52 2,4 C 83 % 1033,3 hPa 0,0 l/m 16,9 km/h (3 Bft) W-SW 247 -0,2 C -1,8 C
20.02.2012 11:57 2,5 C 82 % 1033,1 hPa 0,0 l/m 16,9 km/h (3 Bft) W 270 -0,3 C -1,6 C
20.02.2012 12:02 2,6 C 82 % 1033,2 hPa 0,0 l/m 8,3 km/h (2 Bft) W 270 -0,2 C 0,2 C
20.02.2012 12:07 2,6 C 82 % 1033,1 hPa 0,0 l/m 9,4 km/h (2 Bft) W-NW 292 -0,2 C -0,1 C
20.02.2012 12:12 2,8 C 82 % 1033,2 hPa 0,0 l/m 14,4 km/h (3 Bft) W-SW 247 0,0 C -0,9 C
20.02.2012 12:17 2,8 C 82 % 1033,2 hPa 0,0 l/m 7,6 km/h (2 Bft) W 270 0,0 C 0,7 C
20.02.2012 12:22 3,1 C 81 % 1033,2 hPa 0,0 l/m 14,8 km/h (3 Bft) W 270 0,2 C -0,6 C
20.02.2012 12:27 3,3 C 81 % 1033,3 hPa 0,0 l/m 8,6 km/h (2 Bft) W 270 0,4 C 1,0 C
20.02.2012 12:32 3,3 C 80 % 1033,2 hPa 0,0 l/m 15,8 km/h (3 Bft) W-SW 247 0,2 C -0,5 C
20.02.2012 12:37 3,2 C 80 % 1033,3 hPa 0,0 l/m 5,0 km/h (1 Bft) W-SW 247 0,1 C 2,0 C
20.02.2012 12:42 3,2 C 80 % 1033,3 hPa 0,0 l/m 5,8 km/h (2 Bft) W 270 0,1 C 1,7 C
20.02.2012 12:47 3,2 C 80 % 1033,1 hPa 0,0 l/m 17,3 km/h (3 Bft) W-SW 247 0,1 C -0,8 C
20.02.2012 12:52 3,1 C 79 % 1033,3 hPa 0,0 l/m 4,3 km/h (1 Bft) S-SW 202 -0,2 C 3,1 C
20.02.2012 12:57 3,3 C 79 % 1033,2 hPa 0,0 l/m 14,4 km/h (3 Bft) W-SW 247 0,0 C -0,2 C
20.02.2012 13:02 3,3 C 79 % 1033,1 hPa 0,0 l/m 10,1 km/h (2 Bft) NW 315 0,0 C 0,6 C
20.02.2012 13:07 3,4 C 79 % 1033,1 hPa 0,0 l/m 9,7 km/h (2 Bft) W 270 0,1 C 0,8 C
20.02.2012 13:12 3,5 C 79 % 1033,0 hPa 0,0 l/m 15,8 km/h (3 Bft) W-NW 292 0,2 C -0,2 C
20.02.2012 13:17 3,5 C 79 % 1033,1 hPa 0,0 l/m 7,6 km/h (2 Bft) W-NW 292 0,2 C 1,5 C
20.02.2012 13:22 3,6 C 79 % 1032,9 hPa 0,0 l/m 6,5 km/h (2 Bft) W 270 0,3 C 1,9 C
20.02.2012 13:27 3,6 C 78 % 1033,1 hPa 0,0 l/m 5,4 km/h (1 Bft) W-SW 247 0,1 C 2,3 C
20.02.2012 13:32 3,8 C 78 % 1033,0 hPa 0,0 l/m 5,0 km/h (1 Bft) S-SW 202 0,3 C 2,7 C
20.02.2012 13:37 3,9 C 78 % 1033,0 hPa 0,0 l/m 11,9 km/h (2 Bft) W-SW 247 0,4 C 0,9 C
20.02.2012 13:42 3,9 C 77 % 1033,0 hPa 0,0 l/m 11,9 km/h (2 Bft) W 270 0,2 C 0,9 C
20.02.2012 13:47 4,1 C 78 % 1032,8 hPa 0,0 l/m 7,9 km/h (2 Bft) W 270 0,6 C 2,1 C
20.02.2012 13:52 4,1 C 77 % 1033,0 hPa 0,0 l/m 13,7 km/h (3 Bft) W 270 0,4 C 0,9 C
20.02.2012 13:57 4,1 C 77 % 1033,0 hPa 0,0 l/m 15,5 km/h (3 Bft) W-SW 247 0,4 C 0,6 C
20.02.2012 14:02 4,2 C 76 % 1033,1 hPa 0,0 l/m 11,2 km/h (2 Bft) W-SW 247 0,4 C 1,4 C
20.02.2012 14:07 4,3 C 76 % 1032,9 hPa 0,0 l/m 4,7 km/h (1 Bft) W 270 0,5 C 3,4 C
20.02.2012 14:12 4,4 C 76 % 1033,0 hPa 0,0 l/m 14,4 km/h (3 Bft) W-SW 247 0,5 C 1,1 C
20.02.2012 14:17 4,4 C 75 % 1033,0 hPa 0,0 l/m 8,3 km/h (2 Bft) SW 225 0,4 C 2,4 C
20.02.2012 14:22 4,4 C 75 % 1032,9 hPa 0,0 l/m 4,0 km/h (1 Bft) W-NW 292 0,4 C 4,4 C
20.02.2012 14:27 4,5 C 74 % 1033,0 hPa 0,0 l/m 12,2 km/h (2 Bft) W-SW 247 0,3 C 1,6 C
20.02.2012 14:32 4,6 C 74 % 1033,0 hPa 0,0 l/m 7,9 km/h (2 Bft) W 270 0,4 C 2,7 C
20.02.2012 14:37 4,6 C 72 % 1033,1 hPa 0,0 l/m 9,7 km/h (2 Bft) W 270 -0,0 C 2,2 C
20.02.2012 14:42 4,7 C 72 % 1033,0 hPa 0,0 l/m 3,2 km/h (1 Bft) W-SW 247 0,1 C 4,7 C
20.02.2012 14:47 4,8 C 72 % 1033,1 hPa 0,0 l/m 6,5 km/h (2 Bft) W-SW 247 0,2 C 3,3 C
20.02.2012 14:52 4,8 C 71 % 1033,1 hPa 0,0 l/m 7,6 km/h (2 Bft) W 270 -0,0 C 3,0 C
20.02.2012 14:57 4,8 C 71 % 1032,9 hPa 0,0 l/m 12,6 km/h (3 Bft) W-SW 247 -0,0 C 1,9 C
20.02.2012 15:02 4,8 C 71 % 1032,9 hPa 0,0 l/m 23,0 km/h (4 Bft) W-SW 247 -0,0 C 0,5 C
20.02.2012 15:07 4,8 C 70 % 1032,9 hPa 0,0 l/m 15,1 km/h (3 Bft) W-SW 247 -0,2 C 1,5 C
20.02.2012 15:12 4,7 C 71 % 1032,8 hPa 0,0 l/m 18,4 km/h (3 Bft) W-SW 247 -0,1 C 0,9 C
20.02.2012 15:17 4,8 C 70 % 1032,7 hPa 0,0 l/m 8,3 km/h (2 Bft) SW 225 -0,2 C 2,8 C
20.02.2012 15:22 4,8 C 71 % 1032,8 hPa 0,0 l/m 14,8 km/h (3 Bft) W-NW 292 -0,0 C 1,5 C
20.02.2012 15:27 4,9 C 70 % 1032,7 hPa 0,0 l/m 19,1 km/h (3 Bft) SW 225 -0,1 C 1,1 C
20.02.2012 15:32 4,9 C 70 % 1032,7 hPa 0,0 l/m 10,8 km/h (2 Bft) W-SW 247 -0,1 C 2,4 C
20.02.2012 15:37 4,9 C 69 % 1032,7 hPa 0,0 l/m 18,7 km/h (3 Bft) W-SW 247 -0,3 C 1,1 C
20.02.2012 15:42 4,9 C 69 % 1032,7 hPa 0,0 l/m 20,5 km/h (4 Bft) W 270 -0,3 C 0,9 C
20.02.2012 15:47 4,7 C 69 % 1032,8 hPa 0,0 l/m 13,0 km/h (3 Bft) W 270 -0,5 C 1,7 C
20.02.2012 15:52 4,5 C 69 % 1032,7 hPa 0,0 l/m 14,8 km/h (3 Bft) W-SW 247 -0,7 C 1,2 C
20.02.2012 15:57 4,3 C 70 % 1032,7 hPa 0,0 l/m 9,0 km/h (2 Bft) W 270 -0,7 C 2,1 C
20.02.2012 16:02 4,2 C 70 % 1032,7 hPa 0,0 l/m 14,4 km/h (3 Bft) W-SW 247 -0,8 C 0,9 C
20.02.2012 16:07 4,1 C 71 % 1032,6 hPa 0,0 l/m 7,9 km/h (2 Bft) W 270 -0,7 C 2,1 C
20.02.2012 16:12 4,2 C 70 % 1032,5 hPa 0,0 l/m 12,2 km/h (2 Bft) W-NW 292 -0,8 C 1,2 C
20.02.2012 16:17 4,2 C 70 % 1032,6 hPa 0,0 l/m 5,8 km/h (2 Bft) SW 225 -0,8 C 2,9 C
20.02.2012 16:22 4,1 C 70 % 1032,5 hPa 0,0 l/m 7,6 km/h (2 Bft) S-SW 202 -0,9 C 2,2 C
20.02.2012 16:27 4,1 C 69 % 1032,5 hPa 0,0 l/m 7,2 km/h (2 Bft) W-SW 247 -1,1 C 2,3 C
20.02.2012 16:32 3,9 C 70 % 1032,6 hPa 0,0 l/m 8,3 km/h (2 Bft) W-SW 247 -1,1 C 1,8 C
20.02.2012 16:37 3,9 C 70 % 1032,6 hPa 0,0 l/m 7,9 km/h (2 Bft) W-SW 247 -1,1 C 1,9 C
20.02.2012 16:42 3,9 C 71 % 1032,4 hPa 0,0 l/m 5,0 km/h (1 Bft) SW 225 -0,9 C 2,8 C
20.02.2012 16:47 3,8 C 71 % 1032,4 hPa 0,0 l/m 6,1 km/h (2 Bft) W-SW 247 -1,0 C 2,3 C
20.02.2012 16:52 3,8 C 72 % 1032,4 hPa 0,0 l/m 5,8 km/h (2 Bft) W 270 -0,8 C 2,4 C
20.02.2012 16:57 3,6 C 72 % 1032,4 hPa 0,0 l/m 6,1 km/h (2 Bft) W-SW 247 -1,0 C 2,1 C
20.02.2012 17:02 3,5 C 73 % 1032,3 hPa 0,0 l/m 3,2 km/h (1 Bft) W-NW 292 -0,9 C 3,5 C
20.02.2012 17:07 3,4 C 73 % 1032,4 hPa 0,0 l/m 5,0 km/h (1 Bft) W-SW 247 -1,0 C 2,3 C
20.02.2012 17:12 3,3 C 73 % 1032,3 hPa 0,0 l/m 7,2 km/h (2 Bft) W 270 -1,1 C 1,4 C
20.02.2012 17:17 3,3 C 73 % 1032,2 hPa 0,0 l/m 7,9 km/h (2 Bft) W 270 -1,1 C 1,2 C
20.02.2012 17:22 3,2 C 73 % 1032,3 hPa 0,0 l/m 9,4 km/h (2 Bft) SW 225 -1,2 C 0,7 C
20.02.2012 17:27 3,2 C 73 % 1032,3 hPa 0,0 l/m 11,5 km/h (2 Bft) SW 225 -1,2 C 0,2 C
20.02.2012 17:32 3,1 C 73 % 1032,4 hPa 0,0 l/m 7,6 km/h (2 Bft) S-SW 202 -1,3 C 1,0 C
20.02.2012 17:37 3,0 C 73 % 1032,3 hPa 0,0 l/m 10,1 km/h (2 Bft) W 270 -1,4 C 0,2 C
20.02.2012 17:42 2,9 C 73 % 1032,4 hPa 0,0 l/m 6,1 km/h (2 Bft) W-SW 247 -1,5 C 1,3 C
20.02.2012 17:47 2,9 C 74 % 1032,3 hPa 0,0 l/m 6,1 km/h (2 Bft) W-SW 247 -1,3 C 1,3 C
20.02.2012 17:52 2,8 C 74 % 1032,4 hPa 0,0 l/m 4,3 km/h (1 Bft) SW 225 -1,4 C 2,8 C
20.02.2012 17:57 2,7 C 74 % 1032,5 hPa 0,0 l/m 6,5 km/h (2 Bft) W 270 -1,5 C 0,9 C
20.02.2012 18:02 2,6 C 74 % 1032,3 hPa 0,0 l/m 5,0 km/h (1 Bft) SW 225 -1,6 C 1,4 C
20.02.2012 18:07 2,5 C 74 % 1032,4 hPa 0,0 l/m 7,9 km/h (2 Bft) W 270 -1,7 C 0,2 C
20.02.2012 18:12 2,4 C 75 % 1032,4 hPa 0,0 l/m 12,6 km/h (3 Bft) W-SW 247 -1,6 C -1,0 C
20.02.2012 18:17 2,4 C 75 % 1032,6 hPa 0,0 l/m 9,4 km/h (2 Bft) W 270 -1,6 C -0,3 C
20.02.2012 18:22 2,4 C 75 % 1032,4 hPa 0,0 l/m 10,8 km/h (2 Bft) W-SW 247 -1,6 C -0,6 C
20.02.2012 18:27 2,4 C 75 % 1032,4 hPa 0,0 l/m 8,3 km/h (2 Bft) W-SW 247 -1,6 C -0,0 C
20.02.2012 18:32 2,3 C 75 % 1032,4 hPa 0,0 l/m 13,7 km/h (3 Bft) SW 225 -1,7 C -1,3 C
20.02.2012 18:37 2,3 C 75 % 1032,4 hPa 0,0 l/m 5,4 km/h (1 Bft) SW 225 -1,7 C 0,9 C
20.02.2012 18:42 2,3 C 75 % 1032,4 hPa 0,0 l/m 8,3 km/h (2 Bft) W-NW 292 -1,7 C -0,1 C
20.02.2012 18:47 2,2 C 75 % 1032,3 hPa 0,0 l/m 5,8 km/h (2 Bft) W 270 -1,8 C 0,6 C
20.02.2012 18:52 2,1 C 76 % 1032,5 hPa 0,0 l/m 7,2 km/h (2 Bft) SW 225 -1,7 C -0,0 C
20.02.2012 18:57 2,1 C 76 % 1032,4 hPa 0,0 l/m 20,9 km/h (4 Bft) W-SW 247 -1,7 C -2,7 C
20.02.2012 19:02 2,1 C 76 % 1032,5 hPa 0,0 l/m 14,8 km/h (3 Bft) W-SW 247 -1,7 C -1,8 C
20.02.2012 19:07 2,1 C 76 % 1032,4 hPa 0,0 l/m 17,3 km/h (3 Bft) W-SW 247 -1,7 C -2,2 C
20.02.2012 19:12 2,1 C 76 % 1032,6 hPa 0,0 l/m 19,1 km/h (3 Bft) W-SW 247 -1,7 C -2,5 C
20.02.2012 19:17 2,1 C 76 % 1032,5 hPa 0,0 l/m 10,8 km/h (2 Bft) W 270 -1,7 C -1,0 C
20.02.2012 19:22 2,0 C 77 % 1032,5 hPa 0,0 l/m 8,3 km/h (2 Bft) W 270 -1,6 C -0,5 C
20.02.2012 19:27 1,9 C 77 % 1032,4 hPa 0,0 l/m 7,6 km/h (2 Bft) W-SW 247 -1,7 C -0,4 C
20.02.2012 19:32 2,0 C 77 % 1032,3 hPa 0,0 l/m 14,4 km/h (3 Bft) W-SW 247 -1,6 C -1,8 C
20.02.2012 19:37 1,9 C 77 % 1032,4 hPa 0,0 l/m 7,6 km/h (2 Bft) W 270 -1,7 C -0,4 C
20.02.2012 19:42 1,9 C 77 % 1032,3 hPa 0,0 l/m 7,6 km/h (2 Bft) W 270 -1,7 C -0,4 C
20.02.2012 19:47 1,9 C 77 % 1032,3 hPa 0,0 l/m 9,7 km/h (2 Bft) W-SW 247 -1,7 C -1,0 C
20.02.2012 19:52 1,9 C 77 % 1032,2 hPa 0,0 l/m 12,2 km/h (2 Bft) W-SW 247 -1,7 C -1,5 C
20.02.2012 19:57 1,9 C 77 % 1032,2 hPa 0,0 l/m 16,9 km/h (3 Bft) SW 225 -1,7 C -2,4 C
20.02.2012 20:02 1,9 C 77 % 1032,1 hPa 0,0 l/m 5,8 km/h (2 Bft) S-SW 202 -1,7 C 0,2 C
20.02.2012 20:07 1,8 C 77 % 1031,9 hPa 0,0 l/m 11,2 km/h (2 Bft) W-SW 247 -1,8 C -1,4 C
20.02.2012 20:12 1,8 C 77 % 1032,0 hPa 0,0 l/m 12,2 km/h (2 Bft) W-SW 247 -1,8 C -1,7 C
20.02.2012 20:17 1,8 C 77 % 1032,0 hPa 0,0 l/m 10,1 km/h (2 Bft) S-SW 202 -1,8 C -1,2 C
20.02.2012 20:22 1,8 C 77 % 1032,0 hPa 0,0 l/m 10,8 km/h (2 Bft) SW 225 -1,8 C -1,4 C
20.02.2012 20:27 1,8 C 77 % 1031,7 hPa 0,0 l/m 8,6 km/h (2 Bft) SW 225 -1,8 C -0,8 C
20.02.2012 20:32 1,8 C 77 % 1032,0 hPa 0,0 l/m 14,0 km/h (3 Bft) S-SW 202 -1,8 C -2,0 C
20.02.2012 20:37 1,7 C 77 % 1031,8 hPa 0,0 l/m 14,8 km/h (3 Bft) S-SO 157 -1,9 C -2,3 C
20.02.2012 20:42 1,6 C 77 % 1031,9 hPa 0,0 l/m 9,7 km/h (2 Bft) W-SW 247 -2,0 C -1,3 C
20.02.2012 20:47 1,6 C 77 % 1031,6 hPa 0,0 l/m 12,2 km/h (2 Bft) W-NW 292 -2,0 C -1,9 C
20.02.2012 20:52 1,6 C 77 % 1031,6 hPa 0,0 l/m 9,0 km/h (2 Bft) S 180 -2,0 C -1,1 C
20.02.2012 20:57 1,6 C 77 % 1031,7 hPa 0,0 l/m 6,5 km/h (2 Bft) SW 225 -2,0 C -0,4 C
20.02.2012 21:02 1,6 C 77 % 1031,5 hPa 0,0 l/m 6,5 km/h (2 Bft) W-SW 247 -2,0 C -0,4 C
20.02.2012 21:07 1,6 C 77 % 1031,6 hPa 0,0 l/m 7,2 km/h (2 Bft) S-SW 202 -2,0 C -0,6 C
20.02.2012 21:12 1,5 C 77 % 1031,5 hPa 0,0 l/m 7,9 km/h (2 Bft) W-SW 247 -2,1 C -0,9 C
20.02.2012 21:17 1,5 C 77 % 1031,6 hPa 0,0 l/m 15,1 km/h (3 Bft) SW 225 -2,1 C -2,6 C
20.02.2012 21:22 1,5 C 77 % 1031,6 hPa 0,0 l/m 13,3 km/h (3 Bft) SW 225 -2,1 C -2,2 C
20.02.2012 21:27 1,5 C 77 % 1031,5 hPa 0,0 l/m 8,3 km/h (2 Bft) S 180 -2,1 C -1,1 C
20.02.2012 21:32 1,4 C 77 % 1031,5 hPa 0,0 l/m 5,0 km/h (1 Bft) S 180 -2,2 C -0,0 C
20.02.2012 21:37 1,4 C 77 % 1031,5 hPa 0,0 l/m 7,6 km/h (2 Bft) W-SW 247 -2,2 C -1,0 C
20.02.2012 21:42 1,5 C 77 % 1031,5 hPa 0,0 l/m 8,6 km/h (2 Bft) S-SW 202 -2,1 C -1,2 C
20.02.2012 21:47 1,4 C 77 % 1031,4 hPa 0,0 l/m 11,9 km/h (2 Bft) SW 225 -2,2 C -2,1 C
20.02.2012 21:52 1,4 C 77 % 1031,4 hPa 0,0 l/m 8,6 km/h (2 Bft) S-SW 202 -2,2 C -1,3 C
20.02.2012 21:57 1,5 C 77 % 1031,5 hPa 0,0 l/m 15,8 km/h (3 Bft) S-SW 202 -2,1 C -2,7 C
20.02.2012 22:02 1,5 C 77 % 1031,5 hPa 0,0 l/m 13,0 km/h (3 Bft) S-SW 202 -2,1 C -2,2 C
20.02.2012 22:07 1,5 C 77 % 1031,3 hPa 0,0 l/m 10,8 km/h (2 Bft) W-SW 247 -2,1 C -1,7 C
20.02.2012 22:12 1,5 C 77 % 1031,4 hPa 0,0 l/m 14,4 km/h (3 Bft) SW 225 -2,1 C -2,5 C
20.02.2012 22:17 1,5 C 77 % 1031,2 hPa 0,0 l/m 8,6 km/h (2 Bft) S-SW 202 -2,1 C -1,2 C
20.02.2012 22:22 1,5 C 77 % 1031,4 hPa 0,0 l/m 10,8 km/h (2 Bft) SW 225 -2,1 C -1,7 C
20.02.2012 22:27 1,5 C 77 % 1031,4 hPa 0,0 l/m 17,6 km/h (3 Bft) SW 225 -2,1 C -3,0 C
20.02.2012 22:32 1,6 C 77 % 1031,3 hPa 0,0 l/m 9,4 km/h (2 Bft) SW 225 -2,0 C -1,3 C
20.02.2012 22:37 1,6 C 77 % 1031,3 hPa 0,0 l/m 13,3 km/h (3 Bft) SW 225 -2,0 C -2,1 C
20.02.2012 22:42 1,6 C 77 % 1031,3 hPa 0,0 l/m 9,4 km/h (2 Bft) S-SW 202 -2,0 C -1,3 C
20.02.2012 22:47 1,6 C 77 % 1031,3 hPa 0,0 l/m 19,8 km/h (3 Bft) S-SW 202 -2,0 C -3,2 C
20.02.2012 22:52 1,6 C 77 % 1031,5 hPa 0,0 l/m 13,3 km/h (3 Bft) W-SW 247 -2,0 C -2,1 C
20.02.2012 22:57 1,6 C 77 % 1031,3 hPa 0,0 l/m 16,9 km/h (3 Bft) SW 225 -2,0 C -2,8 C
20.02.2012 23:02 1,6 C 77 % 1031,2 hPa 0,0 l/m 6,5 km/h (2 Bft) S-SO 157 -2,0 C -0,4 C
20.02.2012 23:07 1,6 C 77 % 1031,2 hPa 0,0 l/m 12,2 km/h (2 Bft) S-SW 202 -2,0 C -1,9 C
20.02.2012 23:12 1,5 C 77 % 1031,0 hPa 0,0 l/m 6,1 km/h (2 Bft) S 180 -2,1 C -0,3 C
20.02.2012 23:17 1,4 C 77 % 1031,0 hPa 0,0 l/m 16,9 km/h (3 Bft) SW 225 -2,2 C -3,0 C
20.02.2012 23:22 1,3 C 77 % 1031,0 hPa 0,0 l/m 6,8 km/h (2 Bft) SW 225 -2,3 C -0,8 C
20.02.2012 23:27 1,3 C 77 % 1030,9 hPa 0,0 l/m 11,2 km/h (2 Bft) S 180 -2,3 C -2,0 C
20.02.2012 23:32 1,3 C 77 % 1030,9 hPa 0,0 l/m 12,2 km/h (2 Bft) S-SO 157 -2,3 C -2,3 C
20.02.2012 23:37 1,3 C 77 % 1030,9 hPa 0,0 l/m 6,8 km/h (2 Bft) SO 135 -2,3 C -0,8 C
20.02.2012 23:42 1,3 C 77 % 1030,9 hPa 0,0 l/m 9,4 km/h (2 Bft) S 180 -2,3 C -1,6 C
20.02.2012 23:47 1,3 C 77 % 1030,9 hPa 0,0 l/m 13,3 km/h (3 Bft) S-SW 202 -2,3 C -2,5 C
20.02.2012 23:52 1,3 C 77 % 1030,8 hPa 0,0 l/m 13,7 km/h (3 Bft) S-SW 202 -2,3 C -2,6 C
20.02.2012 23:57 1,3 C 77 % 1030,8 hPa 0,0 l/m 10,8 km/h (2 Bft) SW 225 -2,3 C -2,0 C
_ Min-Zeit 06:32 15:37 00:02 - 10:07 - - 05:37 05:42
Minimum _ -0,5 C 69 % 1024,3 hPa - 2,9 km/h (1 Bft) - - -2,3 C -5,7 C
_ Max-Zeit 15:27 05:42 11:52 09:42 15:02 - - 13:47 14:42
Maximum _ 4,9 C 88 % 1033,3 hPa 0,5 l/m 23,0 km/h
W-SW (4 Bft)
- - 0,6 C 4,7 C
Durchschnitt _ 1,6 C 81 % 1030,7 hPa #0,5 l/m 10,1 km/h (2 Bft) W-SW - -1,3 C -1,2 C
(c) by David Heller